sensor_id;sensor_type;location;lat;lon;timestamp;P1;durP1;ratioP1;P2;durP2;ratioP2
32501;SDS011;18952;52.516;13.460;2023-04-29T00:01:35;11.40;;;8.38;;
32501;SDS011;18952;52.516;13.460;2023-04-29T00:04:01;13.70;;;8.10;;
32501;SDS011;18952;52.516;13.460;2023-04-29T00:06:28;10.18;;;8.18;;
32501;SDS011;18952;52.516;13.460;2023-04-29T00:08:55;10.60;;;8.30;;
32501;SDS011;18952;52.516;13.460;2023-04-29T00:11:22;13.60;;;8.38;;
32501;SDS011;18952;52.516;13.460;2023-04-29T00:13:49;12.20;;;8.23;;
32501;SDS011;18952;52.516;13.460;2023-04-29T00:16:16;10.45;;;8.38;;
32501;SDS011;18952;52.516;13.460;2023-04-29T00:18:43;11.45;;;8.38;;
32501;SDS011;18952;52.516;13.460;2023-04-29T00:21:10;15.77;;;8.48;;
32501;SDS011;18952;52.516;13.460;2023-04-29T00:23:37;11.52;;;8.60;;
32501;SDS011;18952;52.516;13.460;2023-04-29T00:26:05;11.60;;;8.65;;
32501;SDS011;18952;52.516;13.460;2023-04-29T00:28:43;10.30;;;8.15;;
32501;SDS011;18952;52.516;13.460;2023-04-29T00:31:10;10.75;;;8.80;;
32501;SDS011;18952;52.516;13.460;2023-04-29T00:33:39;14.93;;;9.52;;
32501;SDS011;18952;52.516;13.460;2023-04-29T00:36:07;12.52;;;8.38;;
32501;SDS011;18952;52.516;13.460;2023-04-29T00:38:34;13.77;;;8.93;;
32501;SDS011;18952;52.516;13.460;2023-04-29T00:41:01;10.15;;;8.23;;
32501;SDS011;18952;52.516;13.460;2023-04-29T00:43:28;13.63;;;9.48;;
32501;SDS011;18952;52.516;13.460;2023-04-29T00:45:55;14.68;;;8.88;;
32501;SDS011;18952;52.516;13.460;2023-04-29T00:48:21;13.00;;;9.30;;
32501;SDS011;18952;52.516;13.460;2023-04-29T00:50:48;14.00;;;11.45;;
32501;SDS011;18952;52.516;13.460;2023-04-29T00:53:15;17.00;;;9.38;;
32501;SDS011;18952;52.516;13.460;2023-04-29T00:55:43;13.13;;;8.90;;
32501;SDS011;18952;52.516;13.460;2023-04-29T00:58:13;12.57;;;8.77;;
32501;SDS011;18952;52.516;13.460;2023-04-29T01:00:40;11.85;;;8.88;;
32501;SDS011;18952;52.516;13.460;2023-04-29T01:03:07;14.05;;;8.63;;
32501;SDS011;18952;52.516;13.460;2023-04-29T01:05:38;14.40;;;9.07;;
32501;SDS011;18952;52.516;13.460;2023-04-29T01:08:33;12.57;;;8.85;;
32501;SDS011;18952;52.516;13.460;2023-04-29T01:11:12;11.30;;;9.27;;
32501;SDS011;18952;52.516;13.460;2023-04-29T01:16:33;11.65;;;9.10;;
32501;SDS011;18952;52.516;13.460;2023-04-29T01:19:14;14.75;;;9.55;;
32501;SDS011;18952;52.516;13.460;2023-04-29T01:21:49;15.45;;;10.00;;
32501;SDS011;18952;52.516;13.460;2023-04-29T01:24:15;16.75;;;10.68;;
32501;SDS011;18952;52.516;13.460;2023-04-29T01:26:44;20.20;;;12.57;;
32501;SDS011;18952;52.516;13.460;2023-04-29T01:29:27;18.00;;;11.30;;
32501;SDS011;18952;52.516;13.460;2023-04-29T01:32:32;15.40;;;11.65;;
32501;SDS011;18952;52.516;13.460;2023-04-29T01:35:10;20.38;;;12.80;;
32501;SDS011;18952;52.516;13.460;2023-04-29T01:37:56;14.85;;;11.32;;
32501;SDS011;18952;52.516;13.460;2023-04-29T01:40:47;14.48;;;12.43;;
32501;SDS011;18952;52.516;13.460;2023-04-29T01:43:24;17.52;;;12.93;;
32501;SDS011;18952;52.516;13.460;2023-04-29T01:45:55;16.35;;;12.95;;
32501;SDS011;18952;52.516;13.460;2023-04-29T01:48:23;15.70;;;13.60;;
32501;SDS011;18952;52.516;13.460;2023-04-29T01:50:50;20.48;;;13.52;;
32501;SDS011;18952;52.516;13.460;2023-04-29T01:53:16;17.25;;;13.55;;
32501;SDS011;18952;52.516;13.460;2023-04-29T01:55:43;23.83;;;16.88;;
32501;SDS011;18952;52.516;13.460;2023-04-29T01:58:10;19.65;;;15.73;;
32501;SDS011;18952;52.516;13.460;2023-04-29T02:00:38;21.50;;;16.92;;
32501;SDS011;18952;52.516;13.460;2023-04-29T02:03:05;21.65;;;15.50;;
32501;SDS011;18952;52.516;13.460;2023-04-29T02:05:32;24.30;;;15.35;;
32501;SDS011;18952;52.516;13.460;2023-04-29T02:07:59;18.10;;;14.82;;
32501;SDS011;18952;52.516;13.460;2023-04-29T02:10:26;22.55;;;16.70;;
32501;SDS011;18952;52.516;13.460;2023-04-29T02:12:53;17.83;;;15.57;;
32501;SDS011;18952;52.516;13.460;2023-04-29T02:15:20;24.00;;;17.73;;
32501;SDS011;18952;52.516;13.460;2023-04-29T02:17:46;20.67;;;16.10;;
32501;SDS011;18952;52.516;13.460;2023-04-29T02:20:14;22.90;;;17.13;;
32501;SDS011;18952;52.516;13.460;2023-04-29T02:22:42;24.83;;;18.42;;
32501;SDS011;18952;52.516;13.460;2023-04-29T02:25:10;21.02;;;16.80;;
32501;SDS011;18952;52.516;13.460;2023-04-29T02:27:38;19.20;;;17.20;;
32501;SDS011;18952;52.516;13.460;2023-04-29T02:30:08;20.67;;;16.98;;
32501;SDS011;18952;52.516;13.460;2023-04-29T02:32:43;19.23;;;17.30;;
32501;SDS011;18952;52.516;13.460;2023-04-29T02:35:10;24.30;;;16.63;;
32501;SDS011;18952;52.516;13.460;2023-04-29T02:37:37;21.98;;;18.08;;
32501;SDS011;18952;52.516;13.460;2023-04-29T02:40:04;22.15;;;18.25;;
32501;SDS011;18952;52.516;13.460;2023-04-29T02:42:31;23.77;;;18.02;;
32501;SDS011;18952;52.516;13.460;2023-04-29T02:44:58;23.92;;;19.20;;
32501;SDS011;18952;52.516;13.460;2023-04-29T02:47:24;23.25;;;20.80;;
32501;SDS011;18952;52.516;13.460;2023-04-29T02:49:51;22.60;;;18.33;;
32501;SDS011;18952;52.516;13.460;2023-04-29T02:52:19;20.98;;;18.83;;
32501;SDS011;18952;52.516;13.460;2023-04-29T02:54:46;22.77;;;18.90;;
32501;SDS011;18952;52.516;13.460;2023-04-29T02:57:13;21.02;;;18.83;;
32501;SDS011;18952;52.516;13.460;2023-04-29T02:59:41;24.08;;;21.48;;
32501;SDS011;18952;52.516;13.460;2023-04-29T03:02:09;27.30;;;19.75;;
32501;SDS011;18952;52.516;13.460;2023-04-29T03:04:36;25.70;;;20.40;;
32501;SDS011;18952;52.516;13.460;2023-04-29T03:07:06;26.48;;;21.85;;
32501;SDS011;18952;52.516;13.460;2023-04-29T03:09:35;25.30;;;22.60;;
32501;SDS011;18952;52.516;13.460;2023-04-29T03:12:07;24.65;;;21.42;;
32501;SDS011;18952;52.516;13.460;2023-04-29T03:14:37;25.60;;;22.88;;
32501;SDS011;18952;52.516;13.460;2023-04-29T03:17:05;24.80;;;22.40;;
32501;SDS011;18952;52.516;13.460;2023-04-29T03:19:32;24.70;;;22.10;;
32501;SDS011;18952;52.516;13.460;2023-04-29T03:21:58;27.08;;;24.25;;
32501;SDS011;18952;52.516;13.460;2023-04-29T03:24:25;25.13;;;22.50;;
32501;SDS011;18952;52.516;13.460;2023-04-29T03:26:52;28.13;;;24.23;;
32501;SDS011;18952;52.516;13.460;2023-04-29T03:29:20;26.27;;;23.55;;
32501;SDS011;18952;52.516;13.460;2023-04-29T03:31:47;29.02;;;23.73;;
32501;SDS011;18952;52.516;13.460;2023-04-29T03:34:15;27.65;;;24.75;;
32501;SDS011;18952;52.516;13.460;2023-04-29T03:36:42;29.13;;;25.98;;
32501;SDS011;18952;52.516;13.460;2023-04-29T03:39:11;30.00;;;26.90;;
32501;SDS011;18952;52.516;13.460;2023-04-29T03:41:38;29.58;;;26.58;;
32501;SDS011;18952;52.516;13.460;2023-04-29T03:44:06;29.92;;;26.52;;
32501;SDS011;18952;52.516;13.460;2023-04-29T03:46:33;33.00;;;27.45;;
32501;SDS011;18952;52.516;13.460;2023-04-29T03:49:01;32.78;;;29.35;;
32501;SDS011;18952;52.516;13.460;2023-04-29T03:51:28;33.00;;;29.52;;
32501;SDS011;18952;52.516;13.460;2023-04-29T03:53:56;32.05;;;28.70;;
32501;SDS011;18952;52.516;13.460;2023-04-29T03:56:24;35.08;;;29.17;;
32501;SDS011;18952;52.516;13.460;2023-04-29T03:58:51;33.28;;;29.67;;
32501;SDS011;18952;52.516;13.460;2023-04-29T04:01:18;37.00;;;31.85;;
32501;SDS011;18952;52.516;13.460;2023-04-29T04:03:45;33.30;;;29.33;;
32501;SDS011;18952;52.516;13.460;2023-04-29T04:06:12;37.67;;;31.27;;
32501;SDS011;18952;52.516;13.460;2023-04-29T04:08:39;35.53;;;31.52;;
32501;SDS011;18952;52.516;13.460;2023-04-29T04:11:05;39.42;;;34.42;;
32501;SDS011;18952;52.516;13.460;2023-04-29T04:13:32;39.97;;;35.50;;
32501;SDS011;18952;52.516;13.460;2023-04-29T04:15:59;44.03;;;39.15;;
32501;SDS011;18952;52.516;13.460;2023-04-29T04:18:25;43.45;;;38.13;;
32501;SDS011;18952;52.516;13.460;2023-04-29T04:20:52;42.45;;;37.85;;
32501;SDS011;18952;52.516;13.460;2023-04-29T04:23:19;44.35;;;39.50;;
32501;SDS011;18952;52.516;13.460;2023-04-29T04:25:46;48.78;;;41.88;;
32501;SDS011;18952;52.516;13.460;2023-04-29T04:28:15;49.88;;;42.47;;
32501;SDS011;18952;52.516;13.460;2023-04-29T04:30:44;46.67;;;41.33;;
32501;SDS011;18952;52.516;13.460;2023-04-29T04:33:11;46.42;;;40.30;;
32501;SDS011;18952;52.516;13.460;2023-04-29T04:35:38;47.80;;;41.20;;
32501;SDS011;18952;52.516;13.460;2023-04-29T04:38:05;43.50;;;38.80;;
32501;SDS011;18952;52.516;13.460;2023-04-29T04:40:31;45.97;;;40.05;;
32501;SDS011;18952;52.516;13.460;2023-04-29T04:42:58;46.42;;;40.22;;
32501;SDS011;18952;52.516;13.460;2023-04-29T04:45:27;48.50;;;42.17;;
32501;SDS011;18952;52.516;13.460;2023-04-29T04:47:54;46.97;;;41.78;;
32501;SDS011;18952;52.516;13.460;2023-04-29T04:50:21;48.13;;;41.17;;
32501;SDS011;18952;52.516;13.460;2023-04-29T04:52:47;48.28;;;42.97;;
32501;SDS011;18952;52.516;13.460;2023-04-29T04:55:15;47.85;;;41.10;;
32501;SDS011;18952;52.516;13.460;2023-04-29T04:57:42;54.65;;;44.55;;
32501;SDS011;18952;52.516;13.460;2023-04-29T05:00:09;56.30;;;47.00;;
32501;SDS011;18952;52.516;13.460;2023-04-29T05:02:41;58.55;;;46.75;;
32501;SDS011;18952;52.516;13.460;2023-04-29T05:05:08;56.97;;;46.15;;
32501;SDS011;18952;52.516;13.460;2023-04-29T05:07:36;56.38;;;48.78;;
32501;SDS011;18952;52.516;13.460;2023-04-29T05:10:03;56.83;;;49.20;;
32501;SDS011;18952;52.516;13.460;2023-04-29T05:12:30;60.25;;;48.90;;
32501;SDS011;18952;52.516;13.460;2023-04-29T05:14:57;62.20;;;51.55;;
32501;SDS011;18952;52.516;13.460;2023-04-29T05:17:23;64.38;;;53.17;;
32501;SDS011;18952;52.516;13.460;2023-04-29T05:19:50;66.05;;;53.25;;
32501;SDS011;18952;52.516;13.460;2023-04-29T05:22:17;64.78;;;52.33;;
32501;SDS011;18952;52.516;13.460;2023-04-29T05:24:44;71.68;;;56.00;;
32501;SDS011;18952;52.516;13.460;2023-04-29T05:27:11;69.10;;;56.08;;
32501;SDS011;18952;52.516;13.460;2023-04-29T05:29:37;74.43;;;56.35;;
32501;SDS011;18952;52.516;13.460;2023-04-29T05:32:05;68.70;;;56.20;;
32501;SDS011;18952;52.516;13.460;2023-04-29T05:34:33;69.72;;;54.85;;
32501;SDS011;18952;52.516;13.460;2023-04-29T05:37:00;67.25;;;55.33;;
32501;SDS011;18952;52.516;13.460;2023-04-29T05:39:28;66.57;;;54.30;;
32501;SDS011;18952;52.516;13.460;2023-04-29T05:41:56;71.55;;;54.88;;
32501;SDS011;18952;52.516;13.460;2023-04-29T05:44:25;71.70;;;55.00;;
32501;SDS011;18952;52.516;13.460;2023-04-29T05:46:52;66.40;;;53.80;;
32501;SDS011;18952;52.516;13.460;2023-04-29T05:49:18;64.32;;;53.15;;
32501;SDS011;18952;52.516;13.460;2023-04-29T05:51:45;70.32;;;53.50;;
32501;SDS011;18952;52.516;13.460;2023-04-29T05:54:12;66.53;;;53.92;;
32501;SDS011;18952;52.516;13.460;2023-04-29T05:56:39;76.93;;;56.28;;
32501;SDS011;18952;52.516;13.460;2023-04-29T05:59:05;76.90;;;58.33;;
32501;SDS011;18952;52.516;13.460;2023-04-29T06:01:32;80.13;;;60.15;;
32501;SDS011;18952;52.516;13.460;2023-04-29T06:03:59;91.60;;;64.20;;
32501;SDS011;18952;52.516;13.460;2023-04-29T06:06:27;94.07;;;66.45;;
32501;SDS011;18952;52.516;13.460;2023-04-29T06:08:54;91.85;;;63.70;;
32501;SDS011;18952;52.516;13.460;2023-04-29T06:11:22;86.53;;;60.78;;
32501;SDS011;18952;52.516;13.460;2023-04-29T06:13:53;85.78;;;60.92;;
32501;SDS011;18952;52.516;13.460;2023-04-29T06:16:22;86.35;;;60.67;;
32501;SDS011;18952;52.516;13.460;2023-04-29T06:18:51;69.72;;;53.45;;
32501;SDS011;18952;52.516;13.460;2023-04-29T06:21:20;77.75;;;56.42;;
32501;SDS011;18952;52.516;13.460;2023-04-29T06:23:48;83.35;;;57.70;;
32501;SDS011;18952;52.516;13.460;2023-04-29T06:26:17;71.25;;;54.72;;
32501;SDS011;18952;52.516;13.460;2023-04-29T06:28:43;75.78;;;55.92;;
32501;SDS011;18952;52.516;13.460;2023-04-29T06:31:10;71.68;;;53.45;;
32501;SDS011;18952;52.516;13.460;2023-04-29T06:33:37;67.65;;;50.88;;
32501;SDS011;18952;52.516;13.460;2023-04-29T06:36:04;63.72;;;47.00;;
32501;SDS011;18952;52.516;13.460;2023-04-29T06:38:31;58.70;;;45.35;;
32501;SDS011;18952;52.516;13.460;2023-04-29T06:40:57;64.43;;;46.80;;
32501;SDS011;18952;52.516;13.460;2023-04-29T06:43:24;64.38;;;48.72;;
32501;SDS011;18952;52.516;13.460;2023-04-29T06:45:51;70.93;;;49.92;;
32501;SDS011;18952;52.516;13.460;2023-04-29T06:48:18;68.43;;;48.78;;
32501;SDS011;18952;52.516;13.460;2023-04-29T06:50:57;65.15;;;47.72;;
32501;SDS011;18952;52.516;13.460;2023-04-29T06:53:25;56.63;;;44.00;;
32501;SDS011;18952;52.516;13.460;2023-04-29T06:55:53;59.63;;;44.42;;
32501;SDS011;18952;52.516;13.460;2023-04-29T06:58:22;57.05;;;43.47;;
32501;SDS011;18952;52.516;13.460;2023-04-29T07:00:51;53.63;;;41.58;;
32501;SDS011;18952;52.516;13.460;2023-04-29T07:03:21;53.78;;;39.45;;
32501;SDS011;18952;52.516;13.460;2023-04-29T07:05:50;51.78;;;39.92;;
32501;SDS011;18952;52.516;13.460;2023-04-29T07:08:17;45.75;;;36.45;;
32501;SDS011;18952;52.516;13.460;2023-04-29T07:10:43;47.22;;;36.78;;
32501;SDS011;18952;52.516;13.460;2023-04-29T07:13:26;43.05;;;34.60;;
32501;SDS011;18952;52.516;13.460;2023-04-29T07:15:53;42.22;;;35.72;;
32501;SDS011;18952;52.516;13.460;2023-04-29T07:18:23;41.75;;;35.05;;
32501;SDS011;18952;52.516;13.460;2023-04-29T07:20:51;43.67;;;36.70;;
32501;SDS011;18952;52.516;13.460;2023-04-29T07:23:18;44.30;;;36.45;;
32501;SDS011;18952;52.516;13.460;2023-04-29T07:25:45;48.70;;;38.70;;
32501;SDS011;18952;52.516;13.460;2023-04-29T07:28:12;51.17;;;36.58;;
32501;SDS011;18952;52.516;13.460;2023-04-29T07:30:38;46.97;;;36.33;;
32501;SDS011;18952;52.516;13.460;2023-04-29T07:33:05;49.83;;;37.45;;
32501;SDS011;18952;52.516;13.460;2023-04-29T07:35:32;48.85;;;37.22;;
32501;SDS011;18952;52.516;13.460;2023-04-29T07:37:59;51.17;;;37.03;;
32501;SDS011;18952;52.516;13.460;2023-04-29T07:40:25;47.30;;;36.22;;
32501;SDS011;18952;52.516;13.460;2023-04-29T07:42:52;50.55;;;35.55;;
32501;SDS011;18952;52.516;13.460;2023-04-29T07:45:19;42.83;;;31.15;;
32501;SDS011;18952;52.516;13.460;2023-04-29T07:47:45;43.03;;;32.80;;
32501;SDS011;18952;52.516;13.460;2023-04-29T07:50:13;43.30;;;32.17;;
32501;SDS011;18952;52.516;13.460;2023-04-29T07:52:40;36.97;;;30.38;;
32501;SDS011;18952;52.516;13.460;2023-04-29T07:55:11;39.47;;;32.33;;
32501;SDS011;18952;52.516;13.460;2023-04-29T07:57:40;34.38;;;29.50;;
32501;SDS011;18952;52.516;13.460;2023-04-29T08:00:09;36.33;;;28.67;;
32501;SDS011;18952;52.516;13.460;2023-04-29T08:02:36;29.58;;;26.27;;
32501;SDS011;18952;52.516;13.460;2023-04-29T08:05:03;31.40;;;25.38;;
32501;SDS011;18952;52.516;13.460;2023-04-29T08:07:31;30.38;;;25.00;;
32501;SDS011;18952;52.516;13.460;2023-04-29T08:09:58;28.65;;;24.40;;
32501;SDS011;18952;52.516;13.460;2023-04-29T08:12:24;25.30;;;22.65;;
32501;SDS011;18952;52.516;13.460;2023-04-29T08:14:51;29.38;;;24.05;;
32501;SDS011;18952;52.516;13.460;2023-04-29T08:17:19;29.10;;;26.17;;
32501;SDS011;18952;52.516;13.460;2023-04-29T08:19:46;29.60;;;26.60;;
32501;SDS011;18952;52.516;13.460;2023-04-29T08:22:13;29.27;;;26.33;;
32501;SDS011;18952;52.516;13.460;2023-04-29T08:24:41;28.95;;;25.85;;
32501;SDS011;18952;52.516;13.460;2023-04-29T08:27:09;27.67;;;24.80;;
32501;SDS011;18952;52.516;13.460;2023-04-29T08:29:37;26.98;;;24.17;;
32501;SDS011;18952;52.516;13.460;2023-04-29T08:32:05;24.85;;;22.42;;
32501;SDS011;18952;52.516;13.460;2023-04-29T08:34:33;25.50;;;22.75;;
32501;SDS011;18952;52.516;13.460;2023-04-29T08:37:01;25.17;;;22.08;;
32501;SDS011;18952;52.516;13.460;2023-04-29T08:39:44;25.63;;;22.92;;
32501;SDS011;18952;52.516;13.460;2023-04-29T08:42:13;30.92;;;23.80;;
32501;SDS011;18952;52.516;13.460;2023-04-29T08:44:42;25.48;;;22.98;;
32501;SDS011;18952;52.516;13.460;2023-04-29T08:47:11;27.67;;;23.40;;
32501;SDS011;18952;52.516;13.460;2023-04-29T08:49:39;25.33;;;22.73;;
32501;SDS011;18952;52.516;13.460;2023-04-29T08:52:07;28.25;;;25.15;;
32501;SDS011;18952;52.516;13.460;2023-04-29T08:54:33;26.98;;;24.15;;
32501;SDS011;18952;52.516;13.460;2023-04-29T08:57:00;29.77;;;26.75;;
32501;SDS011;18952;52.516;13.460;2023-04-29T08:59:27;27.65;;;24.83;;
32501;SDS011;18952;52.516;13.460;2023-04-29T09:01:55;29.35;;;25.63;;
32501;SDS011;18952;52.516;13.460;2023-04-29T09:07:02;32.10;;;28.63;;
32501;SDS011;18952;52.516;13.460;2023-04-29T09:09:30;38.00;;;32.42;;
32501;SDS011;18952;52.516;13.460;2023-04-29T09:11:57;38.35;;;31.77;;
32501;SDS011;18952;52.516;13.460;2023-04-29T09:14:24;39.20;;;33.30;;
32501;SDS011;18952;52.516;13.460;2023-04-29T09:16:51;40.95;;;34.38;;
32501;SDS011;18952;52.516;13.460;2023-04-29T09:19:31;48.90;;;37.20;;
32501;SDS011;18952;52.516;13.460;2023-04-29T09:21:59;50.63;;;38.33;;
32501;SDS011;18952;52.516;13.460;2023-04-29T09:24:27;55.28;;;39.38;;
32501;SDS011;18952;52.516;13.460;2023-04-29T09:26:55;56.35;;;39.63;;
32501;SDS011;18952;52.516;13.460;2023-04-29T09:29:23;52.92;;;41.03;;
32501;SDS011;18952;52.516;13.460;2023-04-29T09:31:50;53.97;;;43.35;;
32501;SDS011;18952;52.516;13.460;2023-04-29T09:34:16;57.65;;;43.35;;
32501;SDS011;18952;52.516;13.460;2023-04-29T09:36:50;59.25;;;44.33;;
32501;SDS011;18952;52.516;13.460;2023-04-29T09:39:20;58.95;;;42.70;;
32501;SDS011;18952;52.516;13.460;2023-04-29T09:44:29;60.50;;;45.70;;
32501;SDS011;18952;52.516;13.460;2023-04-29T09:47:04;57.92;;;45.28;;
32501;SDS011;18952;52.516;13.460;2023-04-29T09:49:34;60.03;;;44.45;;
32501;SDS011;18952;52.516;13.460;2023-04-29T09:52:03;65.88;;;47.85;;
32501;SDS011;18952;52.516;13.460;2023-04-29T09:54:32;64.63;;;46.63;;
32501;SDS011;18952;52.516;13.460;2023-04-29T09:57:01;68.68;;;48.40;;
32501;SDS011;18952;52.516;13.460;2023-04-29T09:59:28;64.70;;;47.92;;
32501;SDS011;18952;52.516;13.460;2023-04-29T10:01:58;69.05;;;50.83;;
32501;SDS011;18952;52.516;13.460;2023-04-29T10:04:30;66.93;;;51.00;;
32501;SDS011;18952;52.516;13.460;2023-04-29T10:07:08;75.63;;;56.72;;
32501;SDS011;18952;52.516;13.460;2023-04-29T10:09:41;84.10;;;60.78;;
32501;SDS011;18952;52.516;13.460;2023-04-29T10:12:17;92.07;;;64.65;;
32501;SDS011;18952;52.516;13.460;2023-04-29T10:17:54;90.53;;;67.97;;
32501;SDS011;18952;52.516;13.460;2023-04-29T10:20:28;88.80;;;67.03;;
32501;SDS011;18952;52.516;13.460;2023-04-29T10:22:57;90.47;;;67.45;;
32501;SDS011;18952;52.516;13.460;2023-04-29T10:25:25;93.15;;;68.93;;
32501;SDS011;18952;52.516;13.460;2023-04-29T10:27:52;95.68;;;68.28;;
32501;SDS011;18952;52.516;13.460;2023-04-29T10:30:21;96.20;;;71.35;;
32501;SDS011;18952;52.516;13.460;2023-04-29T10:32:48;97.65;;;73.35;;
32501;SDS011;18952;52.516;13.460;2023-04-29T10:35:19;86.30;;;66.07;;
32501;SDS011;18952;52.516;13.460;2023-04-29T10:37:48;79.95;;;62.60;;
32501;SDS011;18952;52.516;13.460;2023-04-29T10:40:21;77.15;;;60.50;;
32501;SDS011;18952;52.516;13.460;2023-04-29T10:42:53;79.18;;;60.75;;
32501;SDS011;18952;52.516;13.460;2023-04-29T10:45:30;71.47;;;60.25;;
32501;SDS011;18952;52.516;13.460;2023-04-29T10:50:33;66.60;;;52.55;;
32501;SDS011;18952;52.516;13.460;2023-04-29T10:53:05;65.75;;;52.65;;
32501;SDS011;18952;52.516;13.460;2023-04-29T10:55:35;67.22;;;53.00;;
32501;SDS011;18952;52.516;13.460;2023-04-29T10:58:04;61.42;;;49.05;;
32501;SDS011;18952;52.516;13.460;2023-04-29T11:00:32;49.47;;;42.70;;
32501;SDS011;18952;52.516;13.460;2023-04-29T11:03:01;49.53;;;44.05;;
32501;SDS011;18952;52.516;13.460;2023-04-29T11:05:37;52.35;;;44.17;;
32501;SDS011;18952;52.516;13.460;2023-04-29T11:08:10;53.20;;;46.05;;
32501;SDS011;18952;52.516;13.460;2023-04-29T11:10:42;48.90;;;42.13;;
32501;SDS011;18952;52.516;13.460;2023-04-29T11:13:28;46.67;;;41.42;;
32501;SDS011;18952;52.516;13.460;2023-04-29T11:19:03;46.72;;;39.63;;
32501;SDS011;18952;52.516;13.460;2023-04-29T11:21:30;40.88;;;34.85;;
32501;SDS011;18952;52.516;13.460;2023-04-29T11:23:58;40.38;;;35.63;;
32501;SDS011;18952;52.516;13.460;2023-04-29T11:26:26;37.53;;;33.13;;
32501;SDS011;18952;52.516;13.460;2023-04-29T11:28:53;43.65;;;34.88;;
32501;SDS011;18952;52.516;13.460;2023-04-29T11:31:24;35.80;;;31.98;;
32501;SDS011;18952;52.516;13.460;2023-04-29T11:34:02;38.03;;;33.28;;
32501;SDS011;18952;52.516;13.460;2023-04-29T11:36:30;35.95;;;30.55;;
32501;SDS011;18952;52.516;13.460;2023-04-29T11:39:01;31.77;;;28.27;;
32501;SDS011;18952;52.516;13.460;2023-04-29T11:41:29;34.70;;;27.05;;
32501;SDS011;18952;52.516;13.460;2023-04-29T11:43:57;32.75;;;27.70;;
32501;SDS011;18952;52.516;13.460;2023-04-29T11:46:25;31.77;;;27.02;;
32501;SDS011;18952;52.516;13.460;2023-04-29T11:48:56;31.33;;;26.88;;
32501;SDS011;18952;52.516;13.460;2023-04-29T11:51:23;31.25;;;25.58;;
32501;SDS011;18952;52.516;13.460;2023-04-29T11:53:50;29.10;;;25.02;;
32501;SDS011;18952;52.516;13.460;2023-04-29T11:56:18;28.65;;;25.55;;
32501;SDS011;18952;52.516;13.460;2023-04-29T11:58:48;31.45;;;24.75;;
32501;SDS011;18952;52.516;13.460;2023-04-29T12:01:15;29.60;;;21.35;;
32501;SDS011;18952;52.516;13.460;2023-04-29T12:03:43;24.23;;;20.48;;
32501;SDS011;18952;52.516;13.460;2023-04-29T12:06:10;26.80;;;21.48;;
32501;SDS011;18952;52.516;13.460;2023-04-29T12:08:40;27.05;;;19.13;;
32501;SDS011;18952;52.516;13.460;2023-04-29T12:11:07;22.15;;;19.05;;
32501;SDS011;18952;52.516;13.460;2023-04-29T12:13:34;24.60;;;20.23;;
32501;SDS011;18952;52.516;13.460;2023-04-29T12:16:01;28.50;;;20.27;;
32501;SDS011;18952;52.516;13.460;2023-04-29T12:18:33;24.83;;;18.70;;
32501;SDS011;18952;52.516;13.460;2023-04-29T12:21:09;24.10;;;19.20;;
32501;SDS011;18952;52.516;13.460;2023-04-29T12:23:35;22.60;;;19.70;;
32501;SDS011;18952;52.516;13.460;2023-04-29T12:26:02;23.58;;;18.27;;
32501;SDS011;18952;52.516;13.460;2023-04-29T12:28:29;24.20;;;18.30;;
32501;SDS011;18952;52.516;13.460;2023-04-29T12:30:57;21.77;;;18.42;;
32501;SDS011;18952;52.516;13.460;2023-04-29T12:33:35;20.10;;;17.15;;
32501;SDS011;18952;52.516;13.460;2023-04-29T12:36:02;21.38;;;15.85;;
32501;SDS011;18952;52.516;13.460;2023-04-29T12:38:29;22.75;;;16.92;;
32501;SDS011;18952;52.516;13.460;2023-04-29T12:40:57;21.25;;;16.45;;
32501;SDS011;18952;52.516;13.460;2023-04-29T12:43:28;22.02;;;15.65;;
32501;SDS011;18952;52.516;13.460;2023-04-29T12:46:05;22.80;;;16.48;;
32501;SDS011;18952;52.516;13.460;2023-04-29T12:48:34;23.42;;;18.15;;
32501;SDS011;18952;52.516;13.460;2023-04-29T12:51:02;18.70;;;15.63;;
32501;SDS011;18952;52.516;13.460;2023-04-29T12:53:29;25.63;;;14.23;;
32501;SDS011;18952;52.516;13.460;2023-04-29T12:55:57;19.33;;;12.95;;
32501;SDS011;18952;52.516;13.460;2023-04-29T12:58:27;17.95;;;13.15;;
32501;SDS011;18952;52.516;13.460;2023-04-29T13:00:54;15.02;;;12.80;;
32501;SDS011;18952;52.516;13.460;2023-04-29T13:03:21;16.95;;;12.82;;
32501;SDS011;18952;52.516;13.460;2023-04-29T13:05:50;15.27;;;13.10;;
32501;SDS011;18952;52.516;13.460;2023-04-29T13:08:18;19.55;;;12.82;;
32501;SDS011;18952;52.516;13.460;2023-04-29T13:10:48;13.80;;;11.75;;
32501;SDS011;18952;52.516;13.460;2023-04-29T13:13:17;14.63;;;11.50;;
32501;SDS011;18952;52.516;13.460;2023-04-29T13:15:44;13.60;;;11.52;;
32501;SDS011;18952;52.516;13.460;2023-04-29T13:18:11;14.15;;;10.40;;
32501;SDS011;18952;52.516;13.460;2023-04-29T13:20:38;12.75;;;10.80;;
32501;SDS011;18952;52.516;13.460;2023-04-29T13:23:08;14.32;;;10.90;;
32501;SDS011;18952;52.516;13.460;2023-04-29T13:25:35;15.45;;;10.45;;
32501;SDS011;18952;52.516;13.460;2023-04-29T13:28:01;16.50;;;10.65;;
32501;SDS011;18952;52.516;13.460;2023-04-29T13:30:28;11.70;;;9.90;;
32501;SDS011;18952;52.516;13.460;2023-04-29T13:32:55;11.93;;;9.07;;
32501;SDS011;18952;52.516;13.460;2023-04-29T13:35:34;11.52;;;9.23;;
32501;SDS011;18952;52.516;13.460;2023-04-29T13:38:01;15.98;;;9.60;;
32501;SDS011;18952;52.516;13.460;2023-04-29T13:40:29;12.20;;;9.00;;
32501;SDS011;18952;52.516;13.460;2023-04-29T13:43:08;11.18;;;8.10;;
32501;SDS011;18952;52.516;13.460;2023-04-29T13:45:45;10.48;;;7.93;;
32501;SDS011;18952;52.516;13.460;2023-04-29T13:48:14;11.65;;;8.23;;
32501;SDS011;18952;52.516;13.460;2023-04-29T13:51:01;11.65;;;8.75;;
32501;SDS011;18952;52.516;13.460;2023-04-29T13:53:31;11.20;;;7.75;;
32501;SDS011;18952;52.516;13.460;2023-04-29T13:56:18;10.13;;;8.27;;
32501;SDS011;18952;52.516;13.460;2023-04-29T13:58:47;9.52;;;8.50;;
32501;SDS011;18952;52.516;13.460;2023-04-29T14:01:17;11.68;;;9.30;;
32501;SDS011;18952;52.516;13.460;2023-04-29T14:04:03;9.48;;;8.52;;
32501;SDS011;18952;52.516;13.460;2023-04-29T14:06:31;14.23;;;9.38;;
32501;SDS011;18952;52.516;13.460;2023-04-29T14:08:57;11.95;;;9.40;;
32501;SDS011;18952;52.516;13.460;2023-04-29T14:11:26;13.95;;;10.88;;
32501;SDS011;18952;52.516;13.460;2023-04-29T14:13:53;14.73;;;10.02;;
32501;SDS011;18952;52.516;13.460;2023-04-29T14:16:20;11.70;;;9.75;;
32501;SDS011;18952;52.516;13.460;2023-04-29T14:18:47;11.95;;;9.48;;
32501;SDS011;18952;52.516;13.460;2023-04-29T14:21:13;13.07;;;10.10;;
32501;SDS011;18952;52.516;13.460;2023-04-29T14:23:40;13.93;;;10.45;;
32501;SDS011;18952;52.516;13.460;2023-04-29T14:26:07;11.85;;;9.50;;
32501;SDS011;18952;52.516;13.460;2023-04-29T14:28:52;16.00;;;9.63;;
32501;SDS011;18952;52.516;13.460;2023-04-29T14:31:19;12.93;;;9.93;;
32501;SDS011;18952;52.516;13.460;2023-04-29T14:33:46;12.13;;;10.00;;
32501;SDS011;18952;52.516;13.460;2023-04-29T14:36:14;13.30;;;9.60;;
32501;SDS011;18952;52.516;13.460;2023-04-29T14:38:40;15.32;;;9.93;;